createdAt,value
2017-12-17T00:00:03.528Z,76.26
2017-12-17T00:01:03.538Z,75.89
2017-12-17T00:02:03.538Z,75.79
2017-12-17T00:03:03.533Z,75.98
2017-12-17T00:04:03.523Z,75.60
2017-12-17T00:05:03.541Z,75.70
2017-12-17T00:06:03.533Z,75.70
2017-12-17T00:07:03.536Z,75.70
2017-12-17T00:08:03.530Z,75.51
2017-12-17T00:09:03.535Z,75.42
2017-12-17T00:10:03.518Z,75.23
2017-12-17T00:11:03.530Z,75.04
2017-12-17T00:12:03.546Z,74.95
2017-12-17T00:13:03.535Z,74.57
2017-12-17T00:14:03.528Z,74.66
2017-12-17T00:15:03.539Z,74.76
2017-12-17T00:16:03.540Z,74.66
2017-12-17T00:17:03.526Z,74.38
2017-12-17T00:18:03.602Z,74.85
2017-12-17T00:19:03.530Z,74.66
2017-12-17T00:20:03.539Z,74.76
2017-12-17T00:21:03.534Z,74.38
2017-12-17T00:22:03.544Z,74.66
2017-12-17T00:23:03.537Z,75.32
2017-12-17T00:24:03.548Z,77.20
2017-12-17T00:25:03.544Z,78.43
2017-12-17T00:26:03.544Z,77.96
2017-12-17T00:27:03.544Z,77.49
2017-12-17T00:28:03.553Z,78.52
2017-12-17T00:29:03.532Z,77.77
2017-12-17T00:30:03.556Z,78.05
2017-12-17T00:31:03.543Z,77.01
2017-12-17T00:32:03.547Z,76.26
2017-12-17T00:33:03.543Z,75.98
2017-12-17T00:34:03.551Z,75.60
2017-12-17T00:35:03.546Z,75.79
2017-12-17T00:36:03.559Z,75.42
2017-12-17T00:37:03.536Z,74.85
2017-12-17T00:38:03.550Z,74.95
2017-12-17T00:39:03.552Z,74.00
2017-12-17T00:40:03.554Z,73.53
2017-12-17T00:41:03.555Z,73.81
2017-12-17T00:42:03.554Z,73.43
2017-12-17T00:43:03.548Z,73.62
2017-12-17T00:44:03.534Z,73.25
2017-12-17T00:45:03.533Z,72.58
2017-12-17T00:46:03.532Z,72.58
2017-12-17T00:47:03.540Z,72.40
2017-12-17T00:48:03.545Z,72.96
2017-12-17T00:49:03.542Z,72.40
2017-12-17T00:50:03.552Z,72.11
2017-12-17T00:51:03.553Z,72.21
2017-12-17T00:52:03.546Z,72.40
2017-12-17T00:53:03.544Z,72.21
2017-12-17T00:54:03.544Z,71.83
2017-12-17T00:55:03.543Z,72.77
2017-12-17T00:56:03.548Z,73.25
2017-12-17T00:57:03.536Z,74.47
2017-12-17T00:58:03.544Z,75.79
2017-12-17T00:59:03.561Z,76.73
2017-12-17T01:00:03.552Z,77.30
2017-12-17T01:01:03.661Z,76.92
2017-12-17T01:02:03.556Z,76.92
2017-12-17T01:03:03.561Z,76.73
2017-12-17T01:04:03.564Z,77.39
2017-12-17T01:05:03.549Z,77.67
2017-12-17T01:06:03.556Z,77.67
2017-12-17T01:07:03.552Z,78.43
2017-12-17T01:08:03.546Z,77.96
2017-12-17T01:09:03.558Z,78.71
2017-12-17T01:10:03.563Z,79.56
2017-12-17T01:11:03.555Z,79.19
2017-12-17T01:12:03.545Z,79.28
2017-12-17T01:13:03.549Z,79.28
2017-12-17T01:14:03.556Z,79.28
2017-12-17T01:15:03.547Z,79.09
2017-12-17T01:16:03.551Z,79.19
2017-12-17T01:17:03.545Z,79.19
2017-12-17T01:18:03.543Z,79.66
2017-12-17T01:19:03.563Z,80.13
2017-12-17T01:20:03.549Z,79.94
2017-12-17T01:21:03.551Z,80.60
2017-12-17T01:22:03.551Z,81.63
2017-12-17T01:23:03.564Z,82.58
2017-12-17T01:24:03.529Z,82.67
2017-12-17T01:25:03.560Z,82.95
2017-12-17T01:26:03.558Z,83.33
2017-12-17T01:27:03.529Z,82.86
2017-12-17T01:28:03.563Z,83.61
2017-12-17T01:29:03.570Z,83.24
2017-12-17T01:30:03.532Z,84.09
2017-12-17T01:31:03.556Z,83.99
2017-12-17T01:32:03.511Z,84.09
2017-12-17T01:33:03.523Z,84.33
2017-12-17T01:34:03.565Z,85.36
2017-12-17T01:35:03.572Z,86.11
2017-12-17T01:36:03.522Z,85.83
2017-12-17T01:37:03.593Z,86.11
2017-12-17T01:38:03.566Z,85.93
2017-12-17T01:39:03.568Z,86.02
2017-12-17T01:40:03.515Z,86.21
2017-12-17T01:41:03.566Z,85.93
2017-12-17T01:42:03.560Z,85.93
2017-12-17T01:43:03.570Z,86.02
2017-12-17T01:44:03.563Z,86.11
2017-12-17T01:45:03.543Z,86.21
2017-12-17T01:46:03.512Z,86.02
2017-12-17T01:47:03.559Z,85.64
2017-12-17T01:48:03.542Z,85.55
2017-12-17T01:49:03.573Z,84.89
2017-12-17T01:50:03.565Z,84.33
2017-12-17T01:51:03.510Z,84.23
2017-12-17T01:52:03.562Z,83.20
2017-12-17T01:53:03.509Z,83.10
2017-12-17T01:54:03.553Z,82.82
2017-12-17T01:55:03.514Z,82.16
2017-12-17T01:56:03.566Z,82.35
2017-12-17T01:57:03.515Z,81.97
2017-12-17T01:58:03.513Z,82.01
2017-12-17T01:59:03.508Z,81.54
2017-12-17T02:00:03.512Z,81.63
2017-12-17T02:01:03.566Z,81.35
2017-12-17T02:02:03.519Z,81.45
2017-12-17T02:03:03.515Z,81.26
2017-12-17T02:04:03.549Z,81.45
2017-12-17T02:05:03.508Z,81.07
2017-12-17T02:06:03.554Z,81.35
2017-12-17T02:07:03.548Z,81.16
2017-12-17T02:08:03.511Z,80.51
2017-12-17T02:09:03.567Z,80.60
2017-12-17T02:10:03.642Z,80.13
2017-12-17T02:11:03.551Z,79.56
2017-12-17T02:12:03.514Z,79.47
2017-12-17T02:13:03.512Z,78.52
2017-12-17T02:14:03.567Z,78.62
2017-12-17T02:15:03.507Z,78.62
2017-12-17T02:16:03.564Z,78.15
2017-12-17T02:17:03.565Z,77.64
2017-12-17T02:18:03.515Z,77.92
2017-12-17T02:19:03.511Z,78.43
2017-12-17T02:20:03.508Z,77.92
2017-12-17T02:21:03.508Z,77.77
2017-12-17T02:22:03.516Z,77.45
2017-12-17T02:23:03.554Z,77.11
2017-12-17T02:24:03.517Z,77.73
2017-12-17T02:25:03.515Z,80.46
2017-12-17T02:26:03.544Z,81.50
2017-12-17T02:27:03.573Z,82.25
2017-12-17T02:28:03.511Z,82.44
2017-12-17T02:29:03.511Z,81.97
2017-12-17T02:30:03.515Z,81.69
2017-12-17T02:31:03.519Z,81.31
2017-12-17T02:32:03.514Z,80.65
2017-12-17T02:33:03.516Z,79.99
2017-12-17T02:34:03.520Z,79.43
2017-12-17T02:35:03.562Z,79.43
2017-12-17T02:36:03.568Z,79.43
2017-12-17T02:37:03.521Z,80.18
2017-12-17T02:38:03.574Z,82.07
2017-12-17T02:39:03.519Z,84.23
2017-12-17T02:40:03.563Z,84.61
2017-12-17T02:41:03.549Z,82.92
2017-12-17T02:42:03.551Z,81.03
2017-12-17T02:43:03.522Z,79.90
2017-12-17T02:44:03.552Z,78.30
2017-12-17T02:45:03.571Z,78.30
2017-12-17T02:46:03.547Z,77.92
2017-12-17T02:47:03.557Z,77.73
2017-12-17T02:48:03.518Z,77.45
2017-12-17T02:49:03.517Z,76.92
2017-12-17T02:50:03.526Z,77.30
2017-12-17T02:51:03.560Z,77.07
2017-12-17T02:52:03.517Z,76.82
2017-12-17T02:53:03.577Z,77.20
2017-12-17T02:54:03.557Z,76.45
2017-12-17T02:55:03.563Z,76.82
2017-12-17T02:56:03.524Z,76.26
2017-12-17T02:57:03.580Z,76.64
2017-12-17T02:58:03.517Z,76.45
2017-12-17T02:59:03.524Z,76.73
2017-12-17T03:00:03.562Z,76.73
2017-12-17T03:01:03.578Z,76.35
2017-12-17T03:02:03.574Z,76.17
2017-12-17T03:03:03.520Z,76.54
2017-12-17T03:04:03.524Z,76.35
2017-12-17T03:05:03.519Z,76.22
2017-12-17T03:06:03.518Z,76.26
2017-12-17T03:07:03.575Z,76.82
2017-12-17T03:08:03.568Z,76.70
2017-12-17T03:09:03.580Z,76.79
2017-12-17T03:10:03.579Z,77.26
2017-12-17T03:11:03.558Z,77.73
2017-12-17T03:12:03.576Z,77.45
2017-12-17T03:13:03.576Z,77.55
2017-12-17T03:14:03.519Z,77.45
2017-12-17T03:15:03.569Z,77.83
2017-12-17T03:16:03.520Z,77.45
2017-12-17T03:17:03.551Z,77.73
2017-12-17T03:18:03.567Z,78.05
2017-12-17T03:19:03.525Z,77.83
2017-12-17T03:20:03.580Z,77.73
2017-12-17T03:21:03.554Z,78.11
2017-12-17T03:22:03.570Z,77.83
2017-12-17T03:23:03.518Z,77.73
2017-12-17T03:24:03.524Z,78.39
2017-12-17T03:25:03.567Z,78.49
2017-12-17T03:26:03.574Z,79.05
2017-12-17T03:27:03.557Z,79.43
2017-12-17T03:28:03.530Z,79.52
2017-12-17T03:29:03.518Z,79.14
2017-12-17T03:30:03.563Z,78.96
2017-12-17T03:31:03.519Z,79.14
2017-12-17T03:32:03.570Z,79.05
2017-12-17T03:33:03.574Z,78.20
2017-12-17T03:34:03.578Z,78.39
2017-12-17T03:35:03.538Z,77.64
2017-12-17T03:36:03.522Z,78.86
2017-12-17T03:37:03.518Z,78.02
2017-12-17T03:38:03.523Z,78.30
2017-12-17T03:39:03.563Z,78.30
2017-12-17T03:40:03.576Z,79.05
2017-12-17T03:41:03.522Z,79.33
2017-12-17T03:42:03.522Z,79.43
2017-12-17T03:43:03.525Z,80.37
2017-12-17T03:44:03.520Z,80.08
2017-12-17T03:45:03.540Z,80.56
2017-12-17T03:46:03.568Z,80.46
2017-12-17T03:47:03.569Z,80.27
2017-12-17T03:48:03.521Z,80.46
2017-12-17T03:49:03.561Z,79.99
2017-12-17T03:50:03.543Z,80.46
2017-12-17T03:51:03.553Z,80.37
2017-12-17T03:52:03.546Z,80.74
2017-12-17T03:53:03.521Z,81.31
2017-12-17T03:54:03.517Z,81.12
2017-12-17T03:55:03.566Z,81.31
2017-12-17T03:56:03.579Z,80.93
2017-12-17T03:57:03.521Z,81.03
2017-12-17T03:58:03.521Z,81.22
2017-12-17T03:59:03.569Z,81.12
2017-12-17T04:00:03.558Z,81.12
2017-12-17T04:01:03.539Z,81.59
2017-12-17T04:02:03.551Z,81.78
2017-12-17T04:03:03.563Z,81.12
2017-12-17T04:04:03.559Z,80.74
2017-12-17T04:05:03.546Z,80.37
2017-12-17T04:06:03.570Z,80.46
2017-12-17T04:07:03.519Z,81.22
2017-12-17T04:08:03.561Z,81.59
2017-12-17T04:09:03.560Z,81.41
2017-12-17T04:10:03.545Z,80.93
2017-12-17T04:11:03.557Z,80.74
2017-12-17T04:12:03.551Z,80.56
2017-12-17T04:13:03.554Z,80.18
2017-12-17T04:14:03.516Z,80.37
2017-12-17T04:15:03.566Z,80.37
2017-12-17T04:16:03.511Z,80.65
2017-12-17T04:17:03.514Z,79.71
2017-12-17T04:18:03.514Z,79.61
2017-12-17T04:19:03.512Z,80.18
2017-12-17T04:20:03.545Z,79.99
2017-12-17T04:21:03.571Z,80.56
2017-12-17T04:22:03.541Z,80.08
2017-12-17T04:23:03.565Z,80.37
2017-12-17T04:24:03.510Z,80.18
2017-12-17T04:25:03.511Z,80.65
2017-12-17T04:26:03.510Z,81.03
2017-12-17T04:27:03.564Z,80.93
2017-12-17T04:28:03.503Z,80.93
2017-12-17T04:29:03.546Z,81.03
2017-12-17T04:30:03.558Z,81.22
2017-12-17T04:31:03.562Z,81.12
2017-12-17T04:32:03.506Z,81.41
2017-12-17T04:33:03.507Z,81.22
2017-12-17T04:34:03.552Z,81.03
2017-12-17T04:35:03.552Z,81.12
2017-12-17T04:36:03.506Z,81.31
2017-12-17T04:37:03.508Z,81.59
2017-12-17T04:38:03.500Z,81.31
2017-12-17T04:39:03.498Z,81.50
2017-12-17T04:40:03.503Z,81.78
2017-12-17T04:41:03.503Z,82.44
2017-12-17T04:42:03.559Z,82.35
2017-12-17T04:43:03.521Z,81.78
2017-12-17T04:44:03.540Z,81.97
2017-12-17T04:45:03.548Z,81.78
2017-12-17T04:46:03.541Z,81.78
2017-12-17T04:47:03.498Z,81.97
2017-12-17T04:48:03.498Z,81.97
2017-12-17T04:49:03.547Z,81.59
2017-12-17T04:50:03.538Z,81.31
2017-12-17T04:51:03.491Z,81.22
2017-12-17T04:52:03.494Z,81.12
2017-12-17T04:53:03.536Z,81.88
2017-12-17T04:54:03.488Z,82.35
2017-12-17T04:55:03.534Z,82.63
2017-12-17T04:56:03.540Z,83.20
2017-12-17T04:57:03.491Z,82.54
2017-12-17T04:58:03.528Z,82.82
2017-12-17T04:59:03.549Z,82.73
2017-12-17T05:00:03.546Z,82.54
2017-12-17T05:01:03.531Z,82.63
2017-12-17T05:02:03.490Z,82.07
2017-12-17T05:03:03.484Z,82.44
2017-12-17T05:04:03.483Z,81.97
2017-12-17T05:05:03.489Z,82.44
2017-12-17T05:06:03.516Z,82.44
2017-12-17T05:07:03.482Z,82.35
2017-12-17T05:08:03.479Z,82.07
2017-12-17T05:09:03.479Z,82.44
2017-12-17T05:10:03.534Z,82.44
2017-12-17T05:11:03.533Z,82.44
2017-12-17T05:12:03.511Z,82.25
2017-12-17T05:13:03.484Z,82.35
2017-12-17T05:14:03.521Z,82.35
2017-12-17T05:15:03.483Z,82.35
2017-12-17T05:16:03.513Z,83.01
2017-12-17T05:17:03.476Z,83.01
2017-12-17T05:18:03.535Z,83.39
2017-12-17T05:19:03.482Z,83.39
2017-12-17T05:20:03.530Z,82.82
2017-12-17T05:21:03.509Z,82.92
2017-12-17T05:22:03.487Z,82.35
2017-12-17T05:23:03.474Z,82.35
2017-12-17T05:24:03.502Z,82.35
2017-12-17T05:25:03.514Z,82.35
2017-12-17T05:26:03.522Z,81.97
2017-12-17T05:27:03.475Z,81.69
2017-12-17T05:28:03.474Z,81.22
2017-12-17T05:29:03.470Z,81.03
2017-12-17T05:30:03.528Z,80.93
2017-12-17T05:31:03.525Z,81.41
2017-12-17T05:32:03.527Z,81.41
2017-12-17T05:33:03.518Z,81.59
2017-12-17T05:34:03.496Z,81.31
2017-12-17T05:35:03.470Z,81.31
2017-12-17T05:36:03.527Z,81.78
2017-12-17T05:37:03.470Z,82.54
2017-12-17T05:38:03.521Z,82.35
2017-12-17T05:39:03.468Z,81.78
2017-12-17T05:40:03.518Z,81.22
2017-12-17T05:41:03.463Z,81.41
2017-12-17T05:42:03.471Z,80.84
2017-12-17T05:43:03.468Z,80.27
2017-12-17T05:44:03.516Z,80.84
2017-12-17T05:45:03.504Z,80.56
2017-12-17T05:46:03.485Z,81.12
2017-12-17T05:47:03.502Z,80.93
2017-12-17T05:48:03.462Z,81.22
2017-12-17T05:49:03.521Z,80.46
2017-12-17T05:50:03.493Z,80.56
2017-12-17T05:51:03.519Z,80.56
2017-12-17T05:52:03.510Z,80.56
2017-12-17T05:53:03.517Z,80.56
2017-12-17T05:54:03.460Z,81.12
2017-12-17T05:55:03.458Z,81.12
2017-12-17T05:56:03.509Z,81.03
2017-12-17T05:57:03.462Z,81.12
2017-12-17T05:58:03.461Z,81.31
2017-12-17T05:59:03.460Z,81.69
2017-12-17T06:00:03.516Z,82.25
2017-12-17T06:01:03.514Z,82.16
2017-12-17T06:02:03.456Z,82.07
2017-12-17T06:03:03.460Z,81.97
2017-12-17T06:04:03.515Z,81.97
2017-12-17T06:05:03.509Z,81.69
2017-12-17T06:06:03.518Z,81.69
2017-12-17T06:07:03.453Z,81.59
2017-12-17T06:08:03.453Z,81.97
2017-12-17T06:09:03.492Z,81.69
2017-12-17T06:10:03.501Z,81.59
2017-12-17T06:11:03.457Z,81.78
2017-12-17T06:12:03.459Z,81.31
2017-12-17T06:13:03.500Z,81.31
2017-12-17T06:14:03.514Z,81.50
2017-12-17T06:15:03.477Z,81.12
2017-12-17T06:16:03.448Z,81.59
2017-12-17T06:17:03.454Z,81.31
2017-12-17T06:18:03.453Z,81.31
2017-12-17T06:19:03.448Z,81.31
2017-12-17T06:20:03.450Z,81.22
2017-12-17T06:21:03.449Z,81.12
2017-12-17T06:22:03.451Z,81.59
2017-12-17T06:23:03.446Z,81.88
2017-12-17T06:24:03.446Z,82.07
2017-12-17T06:25:03.444Z,82.07
2017-12-17T06:26:03.444Z,82.44
2017-12-17T06:27:03.445Z,82.54
2017-12-17T06:28:03.443Z,83.01
2017-12-17T06:29:03.443Z,82.44
2017-12-17T06:30:03.448Z,82.73
2017-12-17T06:31:03.449Z,82.44
2017-12-17T06:32:03.448Z,82.16
2017-12-17T06:33:03.441Z,82.35
2017-12-17T06:34:03.440Z,82.54
2017-12-17T06:35:03.445Z,82.82
2017-12-17T06:36:03.441Z,83.01
2017-12-17T06:37:03.438Z,82.73
2017-12-17T06:38:03.445Z,82.63
2017-12-17T06:39:03.447Z,83.48
2017-12-17T06:40:03.441Z,83.58
2017-12-17T06:41:03.436Z,83.29
2017-12-17T06:42:03.436Z,83.76
2017-12-17T06:43:03.441Z,83.67
2017-12-17T06:44:03.437Z,83.39
2017-12-17T06:45:03.442Z,83.01
2017-12-17T06:46:03.440Z,82.92
2017-12-17T06:47:03.440Z,82.44
2017-12-17T06:48:03.433Z,82.44
2017-12-17T06:49:03.432Z,82.16
2017-12-17T06:50:03.431Z,82.35
2017-12-17T06:51:03.438Z,81.69
2017-12-17T06:52:03.431Z,81.78
2017-12-17T06:53:03.430Z,81.50
2017-12-17T06:54:03.433Z,81.12
2017-12-17T06:55:03.428Z,81.22
2017-12-17T06:56:03.427Z,81.03
2017-12-17T06:57:03.433Z,80.74
2017-12-17T06:58:03.427Z,80.08
2017-12-17T06:59:03.432Z,80.65
2017-12-17T07:00:03.424Z,79.90
2017-12-17T07:01:03.430Z,79.61
2017-12-17T07:02:03.426Z,78.49
2017-12-17T07:03:03.431Z,78.39
2017-12-17T07:04:03.428Z,78.30
2017-12-17T07:05:03.433Z,77.92
2017-12-17T07:06:03.430Z,78.30
2017-12-17T07:07:03.429Z,78.11
2017-12-17T07:08:03.423Z,77.83
2017-12-17T07:09:03.427Z,77.55
2017-12-17T07:10:03.421Z,76.89
2017-12-17T07:11:03.424Z,77.26
2017-12-17T07:12:03.424Z,76.79
2017-12-17T07:13:03.424Z,75.75
2017-12-17T07:14:03.428Z,75.56
2017-12-17T07:15:03.442Z,74.90
2017-12-17T07:16:03.420Z,74.81
2017-12-17T07:17:03.422Z,73.87
2017-12-17T07:18:03.424Z,73.68
2017-12-17T07:19:03.423Z,73.77
2017-12-17T07:20:03.416Z,73.39
2017-12-17T07:21:03.414Z,73.49
2017-12-17T07:22:03.416Z,73.39
2017-12-17T07:23:03.412Z,72.74
2017-12-17T07:24:03.418Z,72.92
2017-12-17T07:25:03.410Z,72.55
2017-12-17T07:26:03.413Z,72.64
2017-12-17T07:27:03.420Z,72.92
2017-12-17T07:28:03.414Z,73.39
2017-12-17T07:29:03.415Z,73.21
2017-12-17T07:30:03.415Z,73.21
2017-12-17T07:31:03.415Z,73.39
2017-12-17T07:32:03.413Z,73.11
2017-12-17T07:33:03.408Z,73.11
2017-12-17T07:34:03.406Z,71.42
2017-12-17T07:35:03.406Z,71.51
2017-12-17T07:36:03.407Z,71.23
2017-12-17T07:37:03.405Z,71.33
2017-12-17T07:38:03.422Z,71.14
2017-12-17T07:39:03.402Z,71.04
2017-12-17T07:40:03.406Z,71.23
2017-12-17T07:41:03.406Z,71.33
2017-12-17T07:42:03.402Z,71.04
2017-12-17T07:43:03.405Z,70.95
2017-12-17T07:44:03.399Z,70.48
2017-12-17T07:45:03.405Z,71.23
2017-12-17T07:46:03.401Z,71.61
2017-12-17T07:47:03.402Z,72.17
2017-12-17T07:48:03.402Z,72.45
2017-12-17T07:49:03.397Z,72.27
2017-12-17T07:50:03.401Z,72.17
2017-12-17T07:51:03.403Z,72.27
2017-12-17T07:52:03.393Z,72.27
2017-12-17T07:53:03.392Z,72.08
2017-12-17T07:54:03.395Z,72.27
2017-12-17T07:55:03.393Z,72.27
2017-12-17T07:56:03.390Z,72.27
2017-12-17T07:57:03.395Z,72.27
2017-12-17T07:58:03.395Z,72.83
2017-12-17T07:59:03.394Z,72.74
2017-12-17T08:00:03.386Z,72.64
2017-12-17T08:01:03.393Z,72.92
2017-12-17T08:02:03.396Z,72.27
2017-12-17T08:03:03.393Z,72.17
2017-12-17T08:04:03.387Z,72.45
2017-12-17T08:05:03.382Z,72.27
2017-12-17T08:06:03.412Z,72.64
2017-12-17T08:07:03.382Z,72.74
2017-12-17T08:08:03.385Z,73.21
2017-12-17T08:09:03.382Z,73.30
2017-12-17T08:10:03.380Z,73.11
2017-12-17T08:11:03.386Z,73.58
2017-12-17T08:12:03.382Z,73.58
2017-12-17T08:13:03.382Z,73.68
2017-12-17T08:14:03.376Z,73.77
2017-12-17T08:15:03.381Z,73.39
2017-12-17T08:16:03.377Z,73.87
2017-12-17T08:17:03.373Z,74.24
2017-12-17T08:18:03.379Z,74.24
2017-12-17T08:19:03.376Z,74.43
2017-12-17T08:20:03.371Z,74.71
2017-12-17T08:21:03.374Z,74.53
2017-12-17T08:22:03.368Z,74.71
2017-12-17T08:23:03.371Z,75.09
2017-12-17T08:24:03.363Z,74.90
2017-12-17T08:25:03.368Z,74.81
2017-12-17T08:26:03.362Z,74.71
2017-12-17T08:27:03.366Z,73.87
2017-12-17T08:28:03.363Z,73.87
2017-12-17T08:29:03.357Z,73.68
2017-12-17T08:30:03.356Z,73.58
2017-12-17T08:31:03.356Z,73.58
2017-12-17T08:32:03.355Z,73.87
2017-12-17T08:33:03.360Z,74.15
2017-12-17T08:34:03.354Z,74.81
2017-12-17T08:35:03.352Z,74.53
2017-12-17T08:36:03.358Z,74.43
2017-12-17T08:37:03.354Z,74.24
2017-12-17T08:38:03.359Z,73.68
2017-12-17T08:39:03.353Z,72.55
2017-12-17T08:40:03.351Z,72.08
2017-12-17T08:41:03.345Z,71.26
2017-12-17T08:42:03.346Z,70.42
2017-12-17T08:43:03.343Z,69.00
2017-12-17T08:44:03.350Z,67.15
2017-12-17T08:45:03.351Z,64.61
2017-12-17T08:46:03.343Z,60.86
2017-12-17T08:47:03.349Z,57.24
2017-12-17T08:48:03.345Z,53.02
2017-12-17T08:49:03.404Z,48.60
2017-12-17T08:50:03.349Z,45.60
2017-12-17T08:51:03.352Z,42.21
2017-12-17T08:52:03.351Z,41.06
2017-12-17T08:53:03.358Z,41.27
2017-12-17T08:54:03.355Z,40.68
2017-12-17T08:55:03.349Z,40.58
2017-12-17T08:56:03.350Z,40.68
2017-12-17T08:57:03.359Z,41.44
2017-12-17T08:58:03.361Z,41.03
2017-12-17T08:59:03.362Z,41.98
2017-12-17T09:00:03.365Z,42.08
2017-12-17T09:01:03.367Z,41.70
2017-12-17T09:02:03.360Z,42.29
2017-12-17T09:03:03.362Z,41.06
2017-12-17T09:04:03.365Z,39.54
2017-12-17T09:05:03.369Z,38.88
2017-12-17T09:06:03.373Z,39.05
2017-12-17T09:07:03.374Z,40.47
2017-12-17T09:08:03.378Z,42.93
2017-12-17T09:09:03.381Z,43.77
2017-12-17T09:10:03.383Z,44.34
2017-12-17T09:11:03.386Z,44.53
2017-12-17T09:12:03.391Z,45.48
2017-12-17T09:13:03.394Z,46.12
2017-12-17T09:14:03.394Z,45.74
2017-12-17T09:15:03.400Z,46.31
2017-12-17T09:16:03.393Z,46.75
2017-12-17T09:17:03.398Z,47.77
2017-12-17T09:18:03.405Z,49.00
2017-12-17T09:19:03.408Z,51.26
2017-12-17T09:20:03.405Z,51.73
2017-12-17T09:21:03.423Z,52.40
2017-12-17T09:22:03.414Z,52.87
2017-12-17T09:23:03.421Z,53.53
2017-12-17T09:24:03.423Z,53.25
2017-12-17T09:25:03.420Z,52.49
2017-12-17T09:26:03.422Z,52.59
2017-12-17T09:27:03.484Z,52.68
2017-12-17T09:28:03.426Z,52.59
2017-12-17T09:29:03.437Z,51.92
2017-12-17T09:30:03.438Z,51.45
2017-12-17T09:31:03.436Z,50.89
2017-12-17T09:32:03.443Z,51.07
2017-12-17T09:33:03.441Z,50.98
2017-12-17T09:34:03.444Z,51.45
2017-12-17T09:35:03.446Z,51.62
2017-12-17T09:36:03.450Z,52.84
2017-12-17T09:37:03.455Z,54.54
2017-12-17T09:38:03.463Z,55.08
2017-12-17T09:39:03.463Z,55.86
2017-12-17T09:40:03.460Z,56.05
2017-12-17T09:41:03.468Z,56.34
2017-12-17T09:42:03.472Z,56.43
2017-12-17T09:43:03.465Z,56.55
2017-12-17T09:44:03.473Z,56.27
2017-12-17T09:45:03.486Z,54.94
2017-12-17T09:46:03.478Z,53.91
2017-12-17T09:47:03.488Z,52.42
2017-12-17T09:48:03.485Z,50.37
2017-12-17T09:49:03.480Z,48.03
2017-12-17T09:50:03.492Z,44.01
2017-12-17T09:51:03.487Z,40.25
2017-12-17T09:52:03.492Z,36.78
2017-12-17T09:53:03.500Z,34.05
2017-12-17T09:54:03.499Z,31.60
2017-12-17T09:55:03.508Z,29.33
2017-12-17T09:56:03.510Z,27.83
2017-12-17T09:57:03.511Z,26.21
2017-12-17T09:58:03.517Z,26.29
2017-12-17T09:59:03.545Z,26.78
2017-12-17T10:00:03.525Z,26.04
2017-12-17T10:01:03.534Z,25.27
2017-12-17T10:02:03.533Z,24.52
2017-12-17T10:03:03.538Z,23.67
2017-12-17T10:04:03.542Z,23.48
2017-12-17T10:05:03.536Z,23.58
2017-12-17T10:06:03.552Z,24.05
2017-12-17T10:07:03.574Z,23.48
2017-12-17T10:08:03.561Z,23.67
2017-12-17T10:09:03.556Z,24.72
2017-12-17T10:10:03.560Z,25.07
2017-12-17T10:11:03.565Z,25.57
2017-12-17T10:12:03.573Z,23.96
2017-12-17T10:13:03.571Z,23.74
2017-12-17T10:14:03.577Z,26.20
2017-12-17T10:15:03.590Z,27.14
2017-12-17T10:16:03.587Z,27.62
2017-12-17T10:17:03.598Z,28.08
2017-12-17T10:18:03.596Z,28.47
2017-12-17T10:19:03.625Z,27.64
2017-12-17T10:20:03.629Z,26.23
2017-12-17T10:21:03.615Z,25.90
2017-12-17T10:22:03.619Z,28.04
2017-12-17T10:23:03.630Z,31.28
2017-12-17T10:24:03.651Z,32.32
2017-12-17T10:25:03.639Z,33.35
2017-12-17T10:26:03.644Z,34.00
2017-12-17T10:27:03.644Z,35.47
2017-12-17T10:28:03.658Z,36.87
2017-12-17T10:29:03.678Z,40.00
2017-12-17T10:30:03.668Z,40.68
2017-12-17T10:31:03.703Z,39.58
2017-12-17T10:32:03.705Z,37.90
2017-12-17T10:33:03.703Z,34.78
2017-12-17T10:34:03.687Z,32.81
2017-12-17T10:35:03.688Z,30.55
2017-12-17T10:36:03.699Z,29.60
2017-12-17T10:37:03.711Z,29.16
2017-12-17T10:38:03.708Z,27.83
2017-12-17T10:39:03.713Z,27.89
2017-12-17T10:40:03.717Z,29.02
2017-12-17T10:41:03.751Z,29.70
2017-12-17T10:42:03.734Z,28.85
2017-12-17T10:43:03.742Z,29.29
2017-12-17T10:44:03.754Z,30.80
2017-12-17T10:45:03.757Z,31.48
2017-12-17T10:46:03.762Z,31.10
2017-12-17T10:47:03.770Z,30.82
2017-12-17T10:48:03.771Z,30.82
2017-12-17T10:49:03.770Z,29.89
2017-12-17T10:50:03.793Z,29.21
2017-12-17T10:51:03.788Z,30.14
2017-12-17T10:52:03.804Z,31.44
2017-12-17T10:53:03.807Z,33.81
2017-12-17T10:54:03.814Z,35.11
2017-12-17T10:55:03.821Z,37.10
2017-12-17T10:56:03.828Z,38.76
2017-12-17T10:57:04.830Z,41.96
2017-12-17T10:58:03.834Z,43.95
2017-12-17T10:59:03.846Z,44.34
2017-12-17T11:00:03.852Z,43.68
2017-12-17T11:01:03.867Z,44.44
2017-12-17T11:02:03.864Z,44.63
2017-12-17T11:03:03.877Z,44.53
2017-12-17T11:04:04.571Z,45.20
2017-12-17T11:05:03.890Z,44.63
2017-12-17T11:06:03.890Z,42.90
2017-12-17T11:07:03.899Z,42.90
2017-12-17T11:08:03.899Z,45.53
2017-12-17T11:09:03.906Z,47.25
2017-12-17T11:10:03.913Z,47.63
2017-12-17T11:11:03.924Z,46.97
2017-12-17T11:12:04.178Z,47.04
2017-12-17T11:13:04.165Z,47.70
2017-12-17T11:14:03.932Z,48.43
2017-12-17T11:15:03.943Z,50.13
2017-12-17T11:16:03.964Z,48.90
2017-12-17T11:17:03.960Z,46.73
2017-12-17T11:18:03.970Z,45.22
2017-12-17T11:19:03.961Z,44.68
2017-12-17T11:20:03.969Z,44.84
2017-12-17T11:21:03.975Z,45.88
2017-12-17T11:22:03.974Z,44.56
2017-12-17T11:23:03.998Z,45.06
2017-12-17T11:24:03.990Z,47.06
2017-12-17T11:25:03.996Z,43.12
2017-12-17T11:26:03.997Z,41.98
2017-12-17T11:27:04.060Z,42.95
2017-12-17T11:28:04.013Z,40.39
2017-12-17T11:29:04.029Z,38.81
2017-12-17T11:30:04.020Z,35.66
2017-12-17T11:31:04.034Z,35.93
2017-12-17T11:32:04.033Z,38.22
2017-12-17T11:33:04.039Z,39.09
2017-12-17T11:34:04.054Z,38.45
2017-12-17T11:35:04.052Z,37.57
2017-12-17T11:36:04.082Z,37.27
2017-12-17T11:37:04.076Z,40.49
2017-12-17T11:38:04.097Z,41.70
2017-12-17T11:39:04.074Z,42.93
2017-12-17T11:40:04.089Z,42.27
2017-12-17T11:41:04.095Z,39.40
2017-12-17T11:42:04.096Z,39.29
2017-12-17T11:43:04.113Z,42.39
2017-12-17T11:44:04.118Z,45.15
2017-12-17T11:45:04.372Z,46.00
2017-12-17T11:46:04.124Z,46.37
2017-12-17T11:47:04.134Z,46.00
2017-12-17T11:48:04.135Z,46.28
2017-12-17T11:49:04.142Z,46.45
2017-12-17T11:50:04.147Z,47.77
2017-12-17T11:51:04.156Z,49.11
2017-12-17T11:52:04.169Z,48.62
2017-12-17T11:53:04.164Z,47.70
2017-12-17T11:54:04.172Z,49.59
2017-12-17T11:55:04.229Z,47.23
2017-12-17T11:56:04.220Z,46.55
2017-12-17T11:57:04.201Z,47.96
2017-12-17T11:58:04.234Z,49.38
2017-12-17T11:59:04.204Z,48.05
2017-12-17T12:00:04.230Z,49.35
2017-12-17T12:01:04.217Z,50.86
2017-12-17T12:02:04.217Z,50.95
2017-12-17T12:03:04.236Z,51.81
2017-12-17T12:04:04.222Z,52.15
2017-12-17T12:05:04.231Z,53.47
2017-12-17T12:06:04.243Z,54.51
2017-12-17T12:07:04.279Z,54.92
2017-12-17T12:08:04.285Z,54.44
2017-12-17T12:09:04.276Z,53.88
2017-12-17T12:10:07.546Z,53.22
2017-12-17T12:11:04.287Z,53.97
2017-12-17T12:12:04.303Z,54.14
2017-12-17T12:13:06.933Z,53.85
2017-12-17T12:14:05.939Z,55.36
2017-12-17T12:15:05.929Z,57.15
2017-12-17T12:16:04.313Z,57.43
2017-12-17T12:17:04.252Z,56.05
2017-12-17T12:18:04.255Z,55.18
2017-12-17T12:19:05.942Z,56.77
2017-12-17T12:20:11.553Z,56.49
2017-12-17T12:21:05.950Z,56.96
2017-12-17T12:22:04.337Z,55.74
2017-12-17T12:23:04.339Z,54.89
2017-12-17T12:24:04.372Z,54.61
2017-12-17T12:25:04.407Z,54.23
2017-12-17T12:26:04.346Z,54.99
2017-12-17T12:28:07.790Z,55.08
2017-12-17T12:29:05.957Z,55.08
2017-12-17T12:30:04.329Z,55.83
2017-12-17T12:31:06.949Z,57.34
2017-12-17T12:32:04.383Z,58.00
2017-12-17T12:33:05.951Z,58.76
2017-12-17T12:34:04.359Z,57.69
2017-12-17T12:35:04.345Z,58.66
2017-12-17T12:36:04.364Z,59.14
2017-12-17T12:37:04.355Z,59.33
2017-12-17T12:38:05.947Z,58.00
2017-12-17T12:39:04.354Z,56.96
2017-12-17T12:40:04.355Z,56.87
2017-12-17T12:41:04.362Z,57.06
2017-12-17T12:42:04.356Z,57.34
2017-12-17T12:43:04.357Z,56.40
2017-12-17T12:44:04.375Z,55.65
2017-12-17T12:45:04.362Z,53.76
2017-12-17T12:46:04.372Z,53.73
2017-12-17T12:47:04.373Z,53.64
2017-12-17T12:48:04.372Z,53.64
2017-12-17T12:49:04.375Z,53.92
2017-12-17T12:50:04.379Z,54.11
2017-12-17T12:51:04.405Z,54.21
2017-12-17T12:52:04.386Z,53.76
2017-12-17T12:53:04.381Z,53.29